Beards Fork, West Virginia
Current Conditions -  °F | °C
As of 1:51 AM on Monday 24 Nov 2014 (Local Time) from KBKW Reporting Station
Broken Clouds Broken Clouds  
Wind Chill: 57°   Ceiling: 6500
Heat Index: 57°   Visibility: 10mi
Dew Point: 47°   Wind: 13mph
Humidity: 69%   Direction: 180°S
Pressure: 29.58"   Gusts: 21mph
Location:  38.096°N, 81.2492°W
Report Text: KBKW 240651Z AUTO 18011G18KT 10SM SCT041 BKN065 14/08 A2958 RMK AO2 SLP007 T01390083
Loading
Personal Weather Stations






























Interactive Weather Map New forecast layout! Learn more

10-Day Weather Forecast

Advertisements
Track Severe Weather on mobile